createdAt,value
2022-11-03T00:01:37.927Z,11.80
2022-11-03T00:04:06.832Z,11.80
2022-11-03T00:06:34.493Z,11.80
2022-11-03T00:09:03.667Z,11.70
2022-11-03T00:11:34.280Z,11.70
2022-11-03T00:14:02.243Z,11.70
2022-11-03T00:16:29.472Z,11.80
2022-11-03T00:18:59.535Z,11.80
2022-11-03T00:21:26.592Z,11.80
2022-11-03T00:23:53.709Z,11.70
2022-11-03T00:26:22.877Z,11.80
2022-11-03T00:28:57.994Z,11.70
2022-11-03T00:31:27.924Z,11.70
2022-11-03T00:33:55.615Z,11.70
2022-11-03T00:36:37.068Z,11.70
2022-11-03T00:39:05.642Z,11.70
2022-11-03T00:41:32.695Z,11.70
2022-11-03T00:43:59.857Z,11.70
2022-11-03T00:46:27.590Z,11.70
2022-11-03T00:48:54.628Z,11.70
2022-11-03T00:51:26.996Z,11.60
2022-11-03T00:53:58.767Z,11.70
2022-11-03T00:56:30.553Z,11.70
2022-11-03T00:58:59.668Z,11.60
2022-11-03T01:01:32.601Z,11.60
2022-11-03T01:04:18.484Z,11.60
2022-11-03T01:06:50.255Z,11.60
2022-11-03T01:09:25.948Z,11.50
2022-11-03T01:12:04.713Z,11.50
2022-11-03T01:14:36.503Z,11.50
2022-11-03T01:17:09.571Z,11.50
2022-11-03T01:19:36.782Z,11.40
2022-11-03T01:22:06.506Z,11.40
2022-11-03T01:24:37.243Z,11.40
2022-11-03T01:27:04.340Z,11.50
2022-11-03T01:29:31.286Z,11.40
2022-11-03T01:31:58.544Z,11.40
2022-11-03T01:34:25.601Z,11.40
2022-11-03T01:36:52.532Z,11.40
2022-11-03T01:39:20.176Z,11.40
2022-11-03T01:41:50.068Z,11.40
2022-11-03T01:44:16.864Z,11.40
2022-11-03T01:47:02.393Z,11.40
2022-11-03T01:49:48.928Z,11.40
2022-11-03T01:52:50.856Z,11.40
2022-11-03T01:55:21.938Z,11.40
2022-11-03T01:57:55.760Z,11.30
2022-11-03T02:00:22.966Z,11.30
2022-11-03T02:02:51.579Z,11.30
2022-11-03T02:05:19.711Z,11.30
2022-11-03T02:08:00.941Z,11.30
2022-11-03T02:10:28.137Z,11.30
2022-11-03T02:12:55.317Z,11.30
2022-11-03T02:15:23.569Z,11.30
2022-11-03T02:17:53.479Z,11.30
2022-11-03T02:20:25.248Z,11.30
2022-11-03T02:23:31.014Z,11.20
2022-11-03T02:25:58.710Z,11.20
2022-11-03T02:28:31.792Z,11.20
2022-11-03T02:31:05.851Z,11.20
2022-11-03T02:33:38.486Z,11.20
2022-11-03T02:36:34.560Z,11.20
2022-11-03T02:39:06.957Z,11.30
2022-11-03T02:41:35.783Z,11.30
2022-11-03T02:44:04.570Z,11.20
2022-11-03T02:46:33.917Z,11.20
2022-11-03T02:49:00.928Z,11.20
2022-11-03T02:51:27.969Z,11.20
2022-11-03T02:54:33.170Z,11.20
2022-11-03T02:57:04.691Z,11.20
2022-11-03T02:59:42.719Z,11.20
2022-11-03T03:02:15.881Z,11.30
2022-11-03T03:04:54.228Z,11.30
2022-11-03T03:07:31.595Z,11.30
2022-11-03T03:10:14.669Z,11.30
2022-11-03T03:12:47.764Z,11.40
2022-11-03T03:15:16.299Z,11.40
2022-11-03T03:18:29.467Z,11.40
2022-11-03T03:21:05.366Z,11.40
2022-11-03T03:23:36.185Z,11.50
2022-11-03T03:26:13.666Z,11.50
2022-11-03T03:28:48.202Z,11.50
2022-11-03T03:31:18.908Z,11.50
2022-11-03T03:33:48.833Z,11.50
2022-11-03T03:36:18.356Z,11.50
2022-11-03T03:38:51.254Z,11.50
2022-11-03T03:41:22.366Z,11.50
2022-11-03T03:43:55.998Z,11.50
2022-11-03T03:46:26.527Z,11.50
2022-11-03T03:48:53.496Z,11.50
2022-11-03T03:51:25.486Z,11.60
2022-11-03T03:53:53.324Z,11.60
2022-11-03T03:56:36.822Z,11.60
2022-11-03T03:59:04.052Z,11.60
2022-11-03T04:01:31.018Z,11.60
2022-11-03T04:03:58.065Z,11.70
2022-11-03T04:06:25.048Z,11.60
2022-11-03T04:08:51.943Z,11.70
2022-11-03T04:11:37.571Z,11.60
2022-11-03T04:14:23.043Z,11.60
2022-11-03T04:17:08.339Z,11.60
2022-11-03T04:19:53.711Z,11.50
2022-11-03T04:22:22.000Z,11.50
2022-11-03T04:24:50.814Z,11.50
2022-11-03T04:27:33.944Z,11.50
2022-11-03T04:30:25.057Z,11.50
2022-11-03T04:32:53.750Z,11.40
2022-11-03T04:35:23.987Z,11.40
2022-11-03T04:38:17.197Z,11.40
2022-11-03T04:40:49.114Z,11.50
2022-11-03T04:43:23.731Z,11.50
2022-11-03T04:45:51.021Z,11.50
2022-11-03T04:48:25.490Z,11.50
2022-11-03T04:50:56.483Z,11.50
2022-11-03T04:53:24.563Z,11.50
2022-11-03T04:55:53.419Z,11.50
2022-11-03T04:58:26.982Z,11.50
2022-11-03T05:00:57.106Z,11.50
2022-11-03T05:03:35.059Z,11.50
2022-11-03T05:06:12.603Z,11.50
2022-11-03T05:08:39.763Z,11.50
2022-11-03T05:11:20.512Z,11.50
2022-11-03T05:13:48.586Z,11.40
2022-11-03T05:16:16.992Z,11.40
2022-11-03T05:18:46.778Z,11.40
2022-11-03T05:21:17.446Z,11.30
2022-11-03T05:24:01.513Z,11.30
2022-11-03T05:26:34.559Z,11.30
2022-11-03T05:29:10.688Z,11.30
2022-11-03T05:31:40.285Z,11.20
2022-11-03T05:34:21.848Z,11.30
2022-11-03T05:36:48.758Z,11.30
2022-11-03T05:39:37.293Z,11.20
2022-11-03T05:42:19.918Z,11.30
2022-11-03T05:44:46.818Z,11.20
2022-11-03T05:47:26.709Z,11.20
2022-11-03T05:50:01.796Z,11.20
2022-11-03T05:52:29.220Z,11.20
2022-11-03T05:54:58.911Z,11.10
2022-11-03T05:57:28.626Z,11.10
2022-11-03T05:59:56.258Z,11.10
2022-11-03T06:02:41.638Z,11.10
2022-11-03T06:05:34.877Z,11.20
2022-11-03T06:08:06.553Z,11.20
2022-11-03T06:10:42.024Z,11.20
2022-11-03T06:13:16.884Z,11.20
2022-11-03T06:15:46.951Z,11.10
2022-11-03T06:18:19.837Z,11.10
2022-11-03T06:20:52.233Z,11.10
2022-11-03T06:23:20.917Z,11.10
2022-11-03T06:25:48.883Z,11.10
2022-11-03T06:28:20.753Z,11.10
2022-11-03T06:30:48.800Z,11.10
2022-11-03T06:33:27.648Z,11.10
2022-11-03T06:36:01.493Z,11.20
2022-11-03T06:38:30.525Z,11.20
2022-11-03T06:40:59.060Z,11.20
2022-11-03T06:43:35.506Z,11.20
2022-11-03T06:46:12.471Z,11.30
2022-11-03T06:48:39.813Z,11.30
2022-11-03T06:51:22.667Z,11.30
2022-11-03T06:53:51.322Z,11.30
2022-11-03T06:56:23.931Z,11.30
2022-11-03T06:58:53.644Z,11.30
2022-11-03T07:01:25.062Z,11.30
2022-11-03T07:03:56.792Z,11.30
2022-11-03T07:06:27.362Z,11.40
2022-11-03T07:09:04.956Z,11.40
2022-11-03T07:11:53.636Z,11.40
2022-11-03T07:14:24.726Z,11.50
2022-11-03T07:17:02.359Z,11.50
2022-11-03T07:19:39.142Z,11.50
2022-11-03T07:22:18.645Z,11.50
2022-11-03T07:24:47.637Z,11.60
2022-11-03T07:27:14.560Z,11.60
2022-11-03T07:29:42.170Z,11.70
2022-11-03T07:32:17.698Z,11.70
2022-11-03T07:34:45.654Z,11.80
2022-11-03T07:37:21.376Z,11.80
2022-11-03T07:39:50.829Z,11.80
2022-11-03T07:42:23.184Z,11.80
2022-11-03T07:44:52.022Z,11.90
2022-11-03T07:47:27.726Z,11.90
2022-11-03T07:49:55.955Z,11.90
2022-11-03T07:52:25.841Z,12.00
2022-11-03T07:54:56.975Z,12.00
2022-11-03T07:57:30.683Z,12.10
2022-11-03T08:00:08.848Z,12.10
2022-11-03T08:02:37.391Z,12.20
2022-11-03T08:05:04.672Z,12.20
2022-11-03T08:07:31.846Z,12.30
2022-11-03T08:09:58.819Z,12.40
2022-11-03T08:12:25.807Z,12.40
2022-11-03T08:14:54.103Z,12.50
2022-11-03T08:17:20.927Z,12.50
2022-11-03T08:19:48.415Z,12.60
2022-11-03T08:22:15.316Z,12.70
2022-11-03T08:24:42.182Z,12.90
2022-11-03T08:27:09.113Z,13.00
2022-11-03T08:29:36.105Z,13.20
2022-11-03T08:32:02.969Z,13.40
2022-11-03T08:34:29.888Z,13.50
2022-11-03T08:36:56.769Z,13.60
2022-11-03T08:39:23.677Z,13.80
2022-11-03T08:41:50.565Z,14.00
2022-11-03T08:44:17.619Z,14.20
2022-11-03T08:46:44.526Z,14.40
2022-11-03T08:49:11.519Z,14.50
2022-11-03T08:51:43.955Z,14.60
2022-11-03T08:54:11.412Z,14.50
2022-11-03T08:56:38.360Z,14.40
2022-11-03T08:59:05.334Z,14.40
2022-11-03T09:01:32.583Z,14.30
2022-11-03T09:03:59.870Z,14.30
2022-11-03T09:06:26.856Z,14.20
2022-11-03T09:11:40.620Z,14.00
2022-11-03T09:14:07.862Z,13.90
2022-11-03T09:16:35.013Z,13.90
2022-11-03T09:19:01.915Z,13.90
2022-11-03T09:21:28.803Z,13.90
2022-11-03T09:23:55.989Z,13.90
2022-11-03T09:26:22.914Z,14.00
2022-11-03T09:28:49.845Z,14.00
2022-11-03T09:31:17.228Z,14.00
2022-11-03T09:33:44.194Z,14.10
2022-11-03T09:36:11.206Z,14.10
2022-11-03T09:38:38.129Z,14.20
2022-11-03T09:41:13.600Z,14.30
2022-11-03T09:43:53.289Z,14.40
2022-11-03T09:46:20.337Z,14.50
2022-11-03T09:48:47.210Z,14.60
2022-11-03T09:51:19.681Z,14.70
2022-11-03T09:53:50.311Z,14.70
2022-11-03T09:56:21.671Z,14.80
2022-11-03T09:58:53.071Z,14.90
2022-11-03T10:01:21.564Z,14.90
2022-11-03T10:03:48.642Z,15.00
2022-11-03T10:06:17.629Z,15.10
2022-11-03T10:08:47.004Z,15.20
2022-11-03T10:11:15.028Z,15.20
2022-11-03T10:13:45.954Z,15.40
2022-11-03T10:16:17.230Z,15.40
2022-11-03T10:18:44.830Z,15.40
2022-11-03T10:21:17.509Z,15.40
2022-11-03T10:23:44.987Z,15.50
2022-11-03T10:26:18.762Z,15.50
2022-11-03T10:29:09.351Z,15.40
2022-11-03T10:31:38.763Z,15.40
2022-11-03T10:34:23.535Z,15.30
2022-11-03T10:36:51.192Z,15.30
2022-11-03T10:39:30.868Z,15.30
2022-11-03T10:41:59.498Z,15.40
2022-11-03T10:44:28.733Z,15.40
2022-11-03T10:47:03.922Z,15.40
2022-11-03T10:49:33.877Z,15.50
2022-11-03T10:52:26.950Z,15.70
2022-11-03T10:54:57.431Z,16.40
2022-11-03T10:57:25.571Z,16.90
2022-11-03T10:59:54.352Z,17.00
2022-11-03T11:02:25.585Z,17.00
2022-11-03T11:05:03.204Z,16.80
2022-11-03T11:07:39.128Z,16.80
2022-11-03T11:10:12.207Z,16.60
2022-11-03T11:12:39.638Z,16.60
2022-11-03T11:15:36.758Z,16.80
2022-11-03T11:18:03.742Z,17.50
2022-11-03T11:20:41.549Z,18.20
2022-11-03T11:23:27.226Z,18.50
2022-11-03T11:26:09.065Z,18.30
2022-11-03T11:28:37.312Z,18.20
2022-11-03T11:31:22.756Z,17.90
2022-11-03T11:33:50.105Z,17.80
2022-11-03T11:36:23.626Z,18.00
2022-11-03T11:38:55.376Z,18.00
2022-11-03T11:41:42.584Z,18.00
2022-11-03T11:44:43.802Z,17.90
2022-11-03T11:47:27.891Z,17.70
2022-11-03T11:50:06.954Z,17.50
2022-11-03T11:53:01.455Z,17.30
2022-11-03T11:55:38.164Z,17.20
2022-11-03T11:58:12.718Z,17.10
2022-11-03T12:01:00.467Z,16.90
2022-11-03T12:03:47.845Z,16.90
2022-11-03T12:06:15.378Z,16.90
2022-11-03T12:08:43.379Z,16.90
2022-11-03T12:11:12.639Z,16.90
2022-11-03T12:13:51.472Z,16.80
2022-11-03T12:16:32.377Z,16.80
2022-11-03T12:19:33.944Z,16.70
2022-11-03T12:22:01.503Z,16.60
2022-11-03T12:24:31.437Z,16.50
2022-11-03T12:27:02.419Z,16.50
2022-11-03T12:29:29.732Z,16.50
2022-11-03T12:31:56.583Z,16.40
2022-11-03T12:34:23.487Z,16.40
2022-11-03T12:36:55.755Z,16.40
2022-11-03T12:39:23.274Z,16.30
2022-11-03T12:41:50.124Z,16.30
2022-11-03T12:44:17.123Z,16.30
2022-11-03T12:46:44.007Z,16.30
2022-11-03T12:49:10.967Z,16.20
2022-11-03T12:51:37.905Z,16.20
2022-11-03T12:54:05.094Z,16.20
2022-11-03T12:56:31.991Z,16.20
2022-11-03T12:58:59.152Z,16.20
2022-11-03T13:01:26.235Z,16.20
2022-11-03T13:03:53.363Z,16.30
2022-11-03T13:06:20.399Z,16.30
2022-11-03T13:08:53.066Z,16.40
2022-11-03T13:11:39.079Z,16.60
2022-11-03T13:14:06.010Z,17.10
2022-11-03T13:16:33.244Z,17.60
2022-11-03T13:19:00.221Z,17.70
2022-11-03T13:21:28.221Z,17.80
2022-11-03T13:23:56.403Z,17.60
2022-11-03T13:26:23.329Z,17.50
2022-11-03T13:28:50.241Z,17.30
2022-11-03T13:31:17.229Z,17.10
2022-11-03T13:33:44.141Z,16.90
2022-11-03T13:36:11.528Z,16.80
2022-11-03T13:38:38.475Z,16.70
2022-11-03T13:41:08.766Z,16.50
2022-11-03T13:43:36.677Z,16.40
2022-11-03T13:46:04.997Z,16.30
2022-11-03T13:51:21.544Z,16.20
2022-11-03T14:04:41.648Z,16.00
2022-11-03T14:07:09.127Z,16.00
2022-11-03T14:12:22.663Z,16.00
2022-11-03T14:14:49.509Z,15.90
2022-11-03T14:17:16.468Z,15.80
2022-11-03T14:19:48.686Z,15.80
2022-11-03T14:22:19.989Z,15.80
2022-11-03T14:24:48.468Z,15.70
2022-11-03T14:27:16.079Z,15.70
2022-11-03T14:29:43.819Z,15.70
2022-11-03T14:32:12.023Z,15.70
2022-11-03T14:34:38.901Z,15.70
2022-11-03T14:37:08.575Z,15.70
2022-11-03T14:39:38.669Z,15.70
2022-11-03T14:42:15.516Z,15.60
2022-11-03T14:44:44.629Z,15.60
2022-11-03T14:47:15.548Z,15.50
2022-11-03T14:49:42.491Z,15.40
2022-11-03T14:52:09.954Z,15.40
2022-11-03T14:54:37.052Z,15.40
2022-11-03T14:57:04.993Z,15.30
2022-11-03T14:59:31.849Z,15.30
2022-11-03T15:01:59.495Z,15.30
2022-11-03T15:04:26.814Z,15.30
2022-11-03T15:06:54.528Z,15.40
2022-11-03T15:09:21.572Z,15.40
2022-11-03T15:11:48.556Z,15.30
2022-11-03T15:14:15.571Z,15.30
2022-11-03T15:16:43.963Z,15.30
2022-11-03T15:19:11.074Z,15.20
2022-11-03T15:21:38.049Z,15.20
2022-11-03T15:26:51.957Z,15.10
2022-11-03T15:29:18.792Z,15.10
2022-11-03T15:31:48.105Z,15.10
2022-11-03T15:34:16.476Z,15.10
2022-11-03T15:36:43.624Z,15.00
2022-11-03T15:39:10.476Z,15.00
2022-11-03T15:41:37.386Z,14.90
2022-11-03T15:44:04.209Z,14.90
2022-11-03T15:46:31.108Z,14.80
2022-11-03T15:48:58.080Z,14.70
2022-11-03T15:51:25.474Z,14.60
2022-11-03T15:53:58.258Z,14.60
2022-11-03T15:56:27.029Z,14.50
2022-11-03T15:58:53.977Z,14.50
2022-11-03T16:01:21.473Z,14.40
2022-11-03T16:03:48.532Z,14.40
2022-11-03T16:06:16.035Z,14.30
2022-11-03T16:08:43.531Z,14.30
2022-11-03T16:11:10.446Z,14.30
2022-11-03T16:13:37.375Z,14.30
2022-11-03T16:16:04.544Z,14.30
2022-11-03T16:18:31.408Z,14.30
2022-11-03T16:20:58.270Z,14.30
2022-11-03T16:23:25.255Z,14.30
2022-11-03T16:25:52.318Z,14.30
2022-11-03T16:28:19.348Z,14.20
2022-11-03T16:30:49.812Z,14.20
2022-11-03T16:33:22.581Z,14.20
2022-11-03T16:35:49.556Z,14.20
2022-11-03T16:38:16.705Z,14.20
2022-11-03T16:40:43.732Z,14.10
2022-11-03T16:43:11.020Z,14.10
2022-11-03T16:45:38.484Z,14.10
2022-11-03T16:48:06.666Z,14.10
2022-11-03T16:50:34.019Z,14.10
2022-11-03T16:53:00.990Z,14.00
2022-11-03T16:55:27.891Z,14.00
2022-11-03T16:57:54.824Z,14.00
2022-11-03T17:00:21.894Z,14.00
2022-11-03T17:02:48.922Z,14.00
2022-11-03T17:05:18.659Z,14.00
2022-11-03T17:07:52.862Z,13.90
2022-11-03T17:10:21.382Z,13.90
2022-11-03T17:12:48.589Z,13.90
2022-11-03T17:15:15.658Z,13.90
2022-11-03T17:17:42.950Z,13.90
2022-11-03T17:20:10.913Z,13.80
2022-11-03T17:22:38.327Z,13.80
2022-11-03T17:25:07.823Z,13.80
2022-11-03T17:27:51.722Z,13.80
2022-11-03T17:30:27.065Z,13.90
2022-11-03T17:32:58.803Z,13.90
2022-11-03T17:35:39.800Z,14.00
2022-11-03T17:38:16.273Z,14.10
2022-11-03T17:40:45.761Z,14.10
2022-11-03T17:43:24.224Z,14.10
2022-11-03T17:45:51.304Z,14.10
2022-11-03T17:48:18.399Z,14.00
2022-11-03T17:50:54.489Z,14.00
2022-11-03T17:53:24.693Z,13.90
2022-11-03T17:56:23.559Z,13.80
2022-11-03T17:58:46.318Z,13.70
2022-11-03T18:01:22.047Z,13.60
2022-11-03T18:03:49.342Z,13.40
2022-11-03T18:06:19.365Z,13.30
2022-11-03T18:08:50.100Z,13.20
2022-11-03T18:11:45.959Z,13.20
2022-11-03T18:14:13.489Z,13.00
2022-11-03T18:16:40.792Z,13.00
2022-11-03T18:19:15.452Z,12.90
2022-11-03T18:21:42.473Z,12.80
2022-11-03T18:24:14.921Z,12.70
2022-11-03T18:26:42.585Z,12.70
2022-11-03T18:29:09.979Z,12.70
2022-11-03T18:31:38.572Z,12.60
2022-11-03T18:34:11.978Z,12.60
2022-11-03T18:36:38.926Z,12.50
2022-11-03T18:39:06.087Z,12.50
2022-11-03T18:41:41.862Z,12.40
2022-11-03T18:44:15.594Z,12.40
2022-11-03T18:46:43.050Z,12.40
2022-11-03T18:49:10.166Z,12.30
2022-11-03T18:51:37.517Z,12.30
2022-11-03T18:54:04.860Z,12.20
2022-11-03T18:56:35.685Z,12.20
2022-11-03T18:59:05.812Z,12.20
2022-11-03T19:01:32.885Z,12.10
2022-11-03T19:03:59.907Z,12.10
2022-11-03T19:06:26.881Z,12.10
2022-11-03T19:08:59.514Z,12.10
2022-11-03T19:11:27.030Z,12.10
2022-11-03T19:13:54.279Z,12.00
2022-11-03T19:16:23.801Z,12.00
2022-11-03T19:18:52.455Z,12.00
2022-11-03T19:21:24.221Z,12.00
2022-11-03T19:23:58.013Z,12.00
2022-11-03T19:26:33.729Z,12.00
2022-11-03T19:29:10.893Z,12.00
2022-11-03T19:31:40.175Z,12.00
2022-11-03T19:34:12.892Z,12.00
2022-11-03T19:36:43.111Z,12.00
2022-11-03T19:39:17.610Z,12.00
2022-11-03T19:42:02.989Z,12.00
2022-11-03T19:44:30.304Z,11.90
2022-11-03T19:46:57.331Z,12.00
2022-11-03T19:49:24.314Z,12.00
2022-11-03T19:51:51.301Z,12.00
2022-11-03T19:54:21.098Z,12.00
2022-11-03T19:56:48.897Z,12.00
2022-11-03T19:59:17.640Z,12.00
2022-11-03T20:01:44.637Z,12.00
2022-11-03T20:04:11.711Z,12.00
2022-11-03T20:06:40.653Z,12.00
2022-11-03T20:09:10.920Z,12.00
2022-11-03T20:11:37.828Z,12.00
2022-11-03T20:14:04.851Z,11.90
2022-11-03T20:16:31.852Z,11.90
2022-11-03T20:18:58.763Z,11.90
2022-11-03T20:21:31.474Z,12.00
2022-11-03T20:24:01.352Z,12.00
2022-11-03T20:26:28.648Z,11.90
2022-11-03T20:28:58.267Z,11.90
2022-11-03T20:31:31.990Z,11.90
2022-11-03T20:33:59.969Z,11.90
2022-11-03T20:36:27.290Z,11.90
2022-11-03T20:38:59.148Z,12.00
2022-11-03T20:41:30.600Z,11.90
2022-11-03T20:43:59.082Z,11.90
2022-11-03T20:46:28.638Z,11.90
2022-11-03T20:48:55.903Z,11.90
2022-11-03T20:51:27.577Z,12.00
2022-11-03T20:53:55.770Z,11.90
2022-11-03T20:56:27.737Z,11.90
2022-11-03T20:58:55.054Z,12.00
2022-11-03T21:01:30.681Z,11.90
2022-11-03T21:04:00.179Z,12.00
2022-11-03T21:06:29.605Z,12.00
2022-11-03T21:08:56.568Z,11.90
2022-11-03T21:11:29.218Z,11.90
2022-11-03T21:13:58.807Z,12.00
2022-11-03T21:16:45.758Z,11.90
2022-11-03T21:19:39.328Z,11.90
2022-11-03T21:25:18.893Z,11.90
2022-11-03T21:27:46.192Z,11.90
2022-11-03T21:30:14.844Z,11.90
2022-11-03T21:32:41.808Z,11.90
2022-11-03T21:35:16.383Z,11.90
2022-11-03T21:37:43.568Z,11.90
2022-11-03T21:40:11.424Z,11.90
2022-11-03T21:42:56.913Z,11.90
2022-11-03T21:45:23.978Z,11.90
2022-11-03T21:48:14.724Z,11.90
2022-11-03T21:50:43.081Z,11.90
2022-11-03T21:53:11.507Z,11.90
2022-11-03T21:55:39.106Z,12.00
2022-11-03T21:58:06.664Z,11.90
2022-11-03T22:00:34.074Z,12.00
2022-11-03T22:03:01.600Z,12.00
2022-11-03T22:05:28.870Z,12.00
2022-11-03T22:07:55.853Z,12.00
2022-11-03T22:10:22.968Z,12.00
2022-11-03T22:12:49.977Z,12.00
2022-11-03T22:15:35.667Z,11.90
2022-11-03T22:18:07.138Z,12.00
2022-11-03T22:20:55.285Z,12.00
2022-11-03T22:23:43.140Z,11.90
2022-11-03T22:26:34.570Z,11.90
2022-11-03T22:29:20.512Z,12.00
2022-11-03T22:31:47.426Z,11.90
2022-11-03T22:34:32.987Z,12.00
2022-11-03T22:37:00.007Z,12.00
2022-11-03T22:39:45.903Z,11.90
2022-11-03T22:42:31.882Z,12.00
2022-11-03T22:45:17.339Z,12.00
2022-11-03T22:47:44.279Z,12.00
2022-11-03T22:50:11.192Z,12.00
2022-11-03T22:52:38.207Z,12.00
2022-11-03T22:55:05.356Z,12.00
2022-11-03T22:57:32.240Z,12.00
2022-11-03T22:59:59.115Z,12.00
2022-11-03T23:02:26.164Z,12.00
2022-11-03T23:04:53.042Z,12.00
2022-11-03T23:07:19.923Z,11.90
2022-11-03T23:09:46.888Z,11.90
2022-11-03T23:12:13.959Z,12.00
2022-11-03T23:14:59.634Z,11.90
2022-11-03T23:17:46.431Z,11.90
2022-11-03T23:20:32.373Z,12.00
2022-11-03T23:22:59.615Z,12.00
2022-11-03T23:25:26.450Z,12.00
2022-11-03T23:27:53.497Z,12.00
2022-11-03T23:30:20.341Z,12.00
2022-11-03T23:32:47.263Z,12.00
2022-11-03T23:35:14.698Z,12.00
2022-11-03T23:37:41.603Z,12.00
2022-11-03T23:40:09.089Z,12.00
2022-11-03T23:42:35.958Z,12.00
2022-11-03T23:45:21.546Z,12.00
2022-11-03T23:48:07.805Z,12.00
2022-11-03T23:50:34.798Z,12.00
2022-11-03T23:53:01.626Z,11.90
2022-11-03T23:55:49.027Z,11.90
2022-11-03T23:58:18.818Z,11.90
